sensor_id;sensor_type;location;lat;lon;timestamp;pressure;altitude;pressure_sealevel;temperature;humidity
71573;BME280;59408;51.032;9.410;2022-10-16T00:01:32;98708.94;;;13.13;100.00
71573;BME280;59408;51.032;9.410;2022-10-16T00:04:00;98709.09;;;13.20;100.00
71573;BME280;59408;51.032;9.410;2022-10-16T00:06:28;98706.75;;;13.22;100.00
71573;BME280;59408;51.032;9.410;2022-10-16T00:08:55;98714.25;;;13.25;100.00
71573;BME280;59408;51.032;9.410;2022-10-16T00:11:23;98702.59;;;13.28;100.00
71573;BME280;59408;51.032;9.410;2022-10-16T00:13:51;98712.38;;;13.29;100.00
71573;BME280;59408;51.032;9.410;2022-10-16T00:16:22;98721.75;;;13.28;100.00
71573;BME280;59408;51.032;9.410;2022-10-16T00:18:48;98711.59;;;13.29;100.00
71573;BME280;59408;51.032;9.410;2022-10-16T00:21:17;98705.72;;;13.30;100.00
71573;BME280;59408;51.032;9.410;2022-10-16T00:23:44;98712.00;;;13.31;100.00
71573;BME280;59408;51.032;9.410;2022-10-16T00:26:12;98714.72;;;13.31;100.00
71573;BME280;59408;51.032;9.410;2022-10-16T00:28:39;98713.53;;;13.28;100.00
71573;BME280;59408;51.032;9.410;2022-10-16T00:31:07;98709.22;;;13.27;100.00
71573;BME280;59408;51.032;9.410;2022-10-16T00:33:37;98700.56;;;13.25;100.00
71573;BME280;59408;51.032;9.410;2022-10-16T00:36:06;98716.63;;;13.27;100.00
71573;BME280;59408;51.032;9.410;2022-10-16T00:38:33;98718.22;;;13.28;100.00
71573;BME280;59408;51.032;9.410;2022-10-16T00:41:00;98715.47;;;13.28;100.00
71573;BME280;59408;51.032;9.410;2022-10-16T00:43:38;98721.31;;;13.26;100.00
71573;BME280;59408;51.032;9.410;2022-10-16T00:46:12;98727.53;;;13.23;100.00
71573;BME280;59408;51.032;9.410;2022-10-16T00:48:42;98731.41;;;13.22;100.00
71573;BME280;59408;51.032;9.410;2022-10-16T00:51:11;98738.78;;;13.18;100.00
71573;BME280;59408;51.032;9.410;2022-10-16T00:53:38;98720.03;;;13.20;100.00
71573;BME280;59408;51.032;9.410;2022-10-16T00:56:05;98724.72;;;13.19;100.00
71573;BME280;59408;51.032;9.410;2022-10-16T00:58:32;98731.00;;;13.20;100.00
71573;BME280;59408;51.032;9.410;2022-10-16T01:00:59;98725.88;;;13.18;100.00
71573;BME280;59408;51.032;9.410;2022-10-16T01:03:28;98737.63;;;13.19;100.00
71573;BME280;59408;51.032;9.410;2022-10-16T01:06:06;98721.13;;;13.15;100.00
71573;BME280;59408;51.032;9.410;2022-10-16T01:08:44;98724.88;;;13.07;100.00
71573;BME280;59408;51.032;9.410;2022-10-16T01:11:19;98734.13;;;12.99;100.00
71573;BME280;59408;51.032;9.410;2022-10-16T01:13:51;98732.88;;;12.97;100.00
71573;BME280;59408;51.032;9.410;2022-10-16T01:16:26;98739.88;;;12.94;100.00
71573;BME280;59408;51.032;9.410;2022-10-16T01:18:58;98734.03;;;12.96;100.00
71573;BME280;59408;51.032;9.410;2022-10-16T01:21:32;98732.09;;;12.96;100.00
71573;BME280;59408;51.032;9.410;2022-10-16T01:24:06;98739.25;;;13.01;100.00
71573;BME280;59408;51.032;9.410;2022-10-16T01:26:46;98747.88;;;13.03;100.00
71573;BME280;59408;51.032;9.410;2022-10-16T01:29:21;98752.13;;;13.00;100.00
71573;BME280;59408;51.032;9.410;2022-10-16T01:31:55;98749.41;;;13.00;100.00
71573;BME280;59408;51.032;9.410;2022-10-16T01:34:29;98741.97;;;13.01;100.00
71573;BME280;59408;51.032;9.410;2022-10-16T01:37:02;98748.97;;;12.98;100.00
71573;BME280;59408;51.032;9.410;2022-10-16T01:39:33;98752.78;;;12.94;100.00
71573;BME280;59408;51.032;9.410;2022-10-16T01:42:06;98739.38;;;12.89;100.00
71573;BME280;59408;51.032;9.410;2022-10-16T01:44:36;98750.41;;;12.92;100.00
71573;BME280;59408;51.032;9.410;2022-10-16T01:47:05;98753.00;;;12.85;100.00
71573;BME280;59408;51.032;9.410;2022-10-16T01:49:35;98760.00;;;12.82;100.00
71573;BME280;59408;51.032;9.410;2022-10-16T01:52:05;98764.81;;;12.89;100.00
71573;BME280;59408;51.032;9.410;2022-10-16T01:54:35;98770.28;;;12.89;100.00
71573;BME280;59408;51.032;9.410;2022-10-16T01:57:04;98784.06;;;12.93;100.00
71573;BME280;59408;51.032;9.410;2022-10-16T01:59:33;98791.84;;;12.91;100.00
71573;BME280;59408;51.032;9.410;2022-10-16T02:02:07;98775.84;;;12.93;100.00
71573;BME280;59408;51.032;9.410;2022-10-16T02:04:37;98784.41;;;12.91;100.00
71573;BME280;59408;51.032;9.410;2022-10-16T02:07:04;98778.16;;;12.91;100.00
71573;BME280;59408;51.032;9.410;2022-10-16T02:09:33;98772.59;;;12.87;100.00
71573;BME280;59408;51.032;9.410;2022-10-16T02:12:03;98770.56;;;12.84;100.00
71573;BME280;59408;51.032;9.410;2022-10-16T02:14:32;98763.59;;;12.86;100.00
71573;BME280;59408;51.032;9.410;2022-10-16T02:16:59;98760.50;;;12.88;100.00
71573;BME280;59408;51.032;9.410;2022-10-16T02:19:27;98764.47;;;12.91;100.00
71573;BME280;59408;51.032;9.410;2022-10-16T02:21:56;98767.63;;;12.93;100.00
71573;BME280;59408;51.032;9.410;2022-10-16T02:24:27;98761.72;;;12.91;100.00
71573;BME280;59408;51.032;9.410;2022-10-16T02:27:01;98769.94;;;12.91;100.00
71573;BME280;59408;51.032;9.410;2022-10-16T02:29:32;98772.94;;;12.85;100.00
71573;BME280;59408;51.032;9.410;2022-10-16T02:32:02;98764.69;;;12.82;100.00
71573;BME280;59408;51.032;9.410;2022-10-16T02:34:32;98765.84;;;12.81;100.00
71573;BME280;59408;51.032;9.410;2022-10-16T02:36:59;98757.19;;;12.79;100.00
71573;BME280;59408;51.032;9.410;2022-10-16T02:39:28;98748.97;;;12.79;100.00
71573;BME280;59408;51.032;9.410;2022-10-16T02:41:55;98763.38;;;12.76;100.00
71573;BME280;59408;51.032;9.410;2022-10-16T02:44:21;98772.38;;;12.76;100.00
71573;BME280;59408;51.032;9.410;2022-10-16T02:46:48;98766.41;;;12.71;100.00
71573;BME280;59408;51.032;9.410;2022-10-16T02:49:14;98775.66;;;12.66;100.00
71573;BME280;59408;51.032;9.410;2022-10-16T02:51:42;98786.63;;;12.66;100.00
71573;BME280;59408;51.032;9.410;2022-10-16T02:54:09;98794.41;;;12.64;100.00
71573;BME280;59408;51.032;9.410;2022-10-16T02:56:36;98799.09;;;12.64;100.00
71573;BME280;59408;51.032;9.410;2022-10-16T02:59:02;98797.84;;;12.61;100.00
71573;BME280;59408;51.032;9.410;2022-10-16T03:01:29;98784.81;;;12.55;100.00
71573;BME280;59408;51.032;9.410;2022-10-16T03:03:55;98763.19;;;12.49;100.00
71573;BME280;59408;51.032;9.410;2022-10-16T03:06:22;98778.41;;;12.47;100.00
71573;BME280;59408;51.032;9.410;2022-10-16T03:08:50;98789.75;;;12.49;100.00
71573;BME280;59408;51.032;9.410;2022-10-16T03:11:17;98797.19;;;12.48;100.00
71573;BME280;59408;51.032;9.410;2022-10-16T03:13:43;98803.38;;;12.45;100.00
71573;BME280;59408;51.032;9.410;2022-10-16T03:16:10;98807.97;;;12.41;100.00
71573;BME280;59408;51.032;9.410;2022-10-16T03:18:37;98813.19;;;12.46;100.00
71573;BME280;59408;51.032;9.410;2022-10-16T03:21:03;98810.00;;;12.44;100.00
71573;BME280;59408;51.032;9.410;2022-10-16T03:23:30;98811.94;;;12.44;100.00
71573;BME280;59408;51.032;9.410;2022-10-16T03:26:03;98805.69;;;12.43;100.00
71573;BME280;59408;51.032;9.410;2022-10-16T03:28:29;98812.28;;;12.42;100.00
71573;BME280;59408;51.032;9.410;2022-10-16T03:30:56;98808.41;;;12.43;100.00
71573;BME280;59408;51.032;9.410;2022-10-16T03:33:23;98811.84;;;12.40;100.00
71573;BME280;59408;51.032;9.410;2022-10-16T03:35:53;98806.31;;;12.37;100.00
71573;BME280;59408;51.032;9.410;2022-10-16T03:38:20;98805.53;;;12.36;100.00
71573;BME280;59408;51.032;9.410;2022-10-16T03:40:47;98800.75;;;12.33;100.00
71573;BME280;59408;51.032;9.410;2022-10-16T03:43:15;98808.97;;;12.33;100.00
71573;BME280;59408;51.032;9.410;2022-10-16T03:45:41;98808.50;;;12.31;100.00
71573;BME280;59408;51.032;9.410;2022-10-16T03:48:08;98805.34;;;12.29;100.00
71573;BME280;59408;51.032;9.410;2022-10-16T03:50:35;98810.81;;;12.29;100.00
71573;BME280;59408;51.032;9.410;2022-10-16T03:53:02;98813.97;;;12.31;100.00
71573;BME280;59408;51.032;9.410;2022-10-16T03:55:29;98823.72;;;12.29;100.00
71573;BME280;59408;51.032;9.410;2022-10-16T03:57:56;98833.47;;;12.30;100.00
71573;BME280;59408;51.032;9.410;2022-10-16T04:00:23;98828.44;;;12.32;100.00
71573;BME280;59408;51.032;9.410;2022-10-16T04:02:50;98841.78;;;12.33;100.00
71573;BME280;59408;51.032;9.410;2022-10-16T04:05:17;98839.84;;;12.34;100.00
71573;BME280;59408;51.032;9.410;2022-10-16T04:07:43;98839.38;;;12.32;100.00
71573;BME280;59408;51.032;9.410;2022-10-16T04:10:10;98844.06;;;12.31;100.00
71573;BME280;59408;51.032;9.410;2022-10-16T04:12:36;98848.31;;;12.29;100.00
71573;BME280;59408;51.032;9.410;2022-10-16T04:15:03;98861.09;;;12.25;100.00
71573;BME280;59408;51.032;9.410;2022-10-16T04:17:31;98856.78;;;12.24;100.00
71573;BME280;59408;51.032;9.410;2022-10-16T04:19:58;98852.22;;;12.28;100.00
71573;BME280;59408;51.032;9.410;2022-10-16T04:22:24;98852.22;;;12.28;100.00
71573;BME280;59408;51.032;9.410;2022-10-16T04:24:56;98837.28;;;12.25;100.00
71573;BME280;59408;51.032;9.410;2022-10-16T04:27:22;98841.53;;;12.23;100.00
71573;BME280;59408;51.032;9.410;2022-10-16T04:29:49;98852.38;;;12.19;100.00
71573;BME280;59408;51.032;9.410;2022-10-16T04:32:16;98850.44;;;12.20;100.00
71573;BME280;59408;51.032;9.410;2022-10-16T04:34:44;98848.47;;;12.20;100.00
71573;BME280;59408;51.032;9.410;2022-10-16T04:37:10;98859.41;;;12.20;100.00
71573;BME280;59408;51.032;9.410;2022-10-16T04:39:37;98848.94;;;12.22;100.00
71573;BME280;59408;51.032;9.410;2022-10-16T04:42:04;98843.56;;;12.26;100.00
71573;BME280;59408;51.032;9.410;2022-10-16T04:44:30;98832.16;;;12.24;100.00
71573;BME280;59408;51.032;9.410;2022-10-16T04:46:57;98827.50;;;12.24;100.00
71573;BME280;59408;51.032;9.410;2022-10-16T04:49:23;98821.13;;;12.20;100.00
71573;BME280;59408;51.032;9.410;2022-10-16T04:51:51;98823.53;;;12.22;100.00
71573;BME280;59408;51.032;9.410;2022-10-16T04:54:18;98826.69;;;12.24;100.00
71573;BME280;59408;51.032;9.410;2022-10-16T04:56:44;98829.00;;;12.22;100.00
71573;BME280;59408;51.032;9.410;2022-10-16T04:59:11;98833.31;;;12.23;100.00
71573;BME280;59408;51.032;9.410;2022-10-16T05:01:37;98829.88;;;12.26;100.00
71573;BME280;59408;51.032;9.410;2022-10-16T05:04:04;98826.97;;;12.34;100.00
71573;BME280;59408;51.032;9.410;2022-10-16T05:06:31;98821.03;;;12.32;100.00
71573;BME280;59408;51.032;9.410;2022-10-16T05:08:58;98819.19;;;12.36;100.00
71573;BME280;59408;51.032;9.410;2022-10-16T05:11:25;98822.78;;;12.40;100.00
71573;BME280;59408;51.032;9.410;2022-10-16T05:13:52;98844.06;;;12.47;100.00
71573;BME280;59408;51.032;9.410;2022-10-16T05:16:21;98841.31;;;12.47;100.00
71573;BME280;59408;51.032;9.410;2022-10-16T05:18:48;98827.34;;;12.52;100.00
71573;BME280;59408;51.032;9.410;2022-10-16T05:21:18;98826.91;;;12.50;100.00
71573;BME280;59408;51.032;9.410;2022-10-16T05:23:45;98840.53;;;12.46;100.00
71573;BME280;59408;51.032;9.410;2022-10-16T05:26:13;98841.31;;;12.47;100.00
71573;BME280;59408;51.032;9.410;2022-10-16T05:28:39;98844.81;;;12.47;100.00
71573;BME280;59408;51.032;9.410;2022-10-16T05:31:07;98846.41;;;12.48;100.00
71573;BME280;59408;51.032;9.410;2022-10-16T05:33:34;98835.13;;;12.50;100.00
71573;BME280;59408;51.032;9.410;2022-10-16T05:36:01;98823.19;;;12.58;100.00
71573;BME280;59408;51.032;9.410;2022-10-16T05:38:27;98841.63;;;12.61;100.00
71573;BME280;59408;51.032;9.410;2022-10-16T05:40:54;98856.63;;;12.67;100.00
71573;BME280;59408;51.032;9.410;2022-10-16T05:43:22;98867.22;;;12.69;100.00
71573;BME280;59408;51.032;9.410;2022-10-16T05:45:55;98862.03;;;12.64;100.00
71573;BME280;59408;51.032;9.410;2022-10-16T05:48:22;98866.63;;;12.60;100.00
71573;BME280;59408;51.032;9.410;2022-10-16T05:50:56;98876.75;;;12.59;100.00
71573;BME280;59408;51.032;9.410;2022-10-16T05:53:23;98884.97;;;12.59;100.00
71573;BME280;59408;51.032;9.410;2022-10-16T05:55:51;98891.94;;;12.57;100.00
71573;BME280;59408;51.032;9.410;2022-10-16T05:58:18;98891.53;;;12.55;100.00
71573;BME280;59408;51.032;9.410;2022-10-16T06:00:53;98878.56;;;12.52;100.00
71573;BME280;59408;51.032;9.410;2022-10-16T06:03:19;98876.59;;;12.52;100.00
71573;BME280;59408;51.032;9.410;2022-10-16T06:05:46;98869.09;;;12.49;98.67
71573;BME280;59408;51.032;9.410;2022-10-16T06:08:12;98869.84;;;12.46;97.21
71573;BME280;59408;51.032;9.410;2022-10-16T06:10:39;98878.84;;;12.46;96.09
71573;BME280;59408;51.032;9.410;2022-10-16T06:13:05;98894.06;;;12.47;95.65
71573;BME280;59408;51.032;9.410;2022-10-16T06:15:32;98897.09;;;12.42;95.47
71573;BME280;59408;51.032;9.410;2022-10-16T06:18:00;98901.75;;;12.42;95.10
71573;BME280;59408;51.032;9.410;2022-10-16T06:20:26;98881.31;;;12.36;95.89
71573;BME280;59408;51.032;9.410;2022-10-16T06:22:53;98897.28;;;12.34;95.71
71573;BME280;59408;51.032;9.410;2022-10-16T06:25:20;98910.16;;;12.33;95.81
71573;BME280;59408;51.032;9.410;2022-10-16T06:27:46;98911.75;;;12.34;95.75
71573;BME280;59408;51.032;9.410;2022-10-16T06:30:13;98917.31;;;12.38;94.38
71573;BME280;59408;51.032;9.410;2022-10-16T06:32:40;98933.34;;;12.39;95.76
71573;BME280;59408;51.032;9.410;2022-10-16T06:35:08;98936.09;;;12.39;95.74
71573;BME280;59408;51.032;9.410;2022-10-16T06:37:34;98941.50;;;12.36;95.51
71573;BME280;59408;51.032;9.410;2022-10-16T06:40:01;98942.63;;;12.35;95.18
71573;BME280;59408;51.032;9.410;2022-10-16T06:42:27;98951.19;;;12.33;95.32
71573;BME280;59408;51.032;9.410;2022-10-16T06:44:54;98948.72;;;12.28;95.21
71573;BME280;59408;51.032;9.410;2022-10-16T06:47:21;98942.81;;;12.26;95.61
71573;BME280;59408;51.032;9.410;2022-10-16T06:49:48;98948.63;;;12.25;95.38
71573;BME280;59408;51.032;9.410;2022-10-16T06:52:21;98958.66;;;12.21;95.44
71573;BME280;59408;51.032;9.410;2022-10-16T06:54:47;98977.81;;;12.21;95.73
71573;BME280;59408;51.032;9.410;2022-10-16T06:57:14;98983.66;;;12.19;96.21
71573;BME280;59408;51.032;9.410;2022-10-16T06:59:40;98975.44;;;12.19;95.91
71573;BME280;59408;51.032;9.410;2022-10-16T07:02:12;98971.53;;;12.20;94.54
71573;BME280;59408;51.032;9.410;2022-10-16T07:04:38;98972.88;;;12.26;93.97
71573;BME280;59408;51.032;9.410;2022-10-16T07:07:05;98960.47;;;12.29;93.97
71573;BME280;59408;51.032;9.410;2022-10-16T07:09:36;98969.88;;;12.31;94.84
71573;BME280;59408;51.032;9.410;2022-10-16T07:12:03;98975.00;;;12.33;94.53
71573;BME280;59408;51.032;9.410;2022-10-16T07:14:30;98985.59;;;12.34;94.86
71573;BME280;59408;51.032;9.410;2022-10-16T07:16:56;98993.09;;;12.37;95.01
71573;BME280;59408;51.032;9.410;2022-10-16T07:19:23;98995.56;;;12.42;94.60
71573;BME280;59408;51.032;9.410;2022-10-16T07:21:49;98996.47;;;12.46;95.41
71573;BME280;59408;51.032;9.410;2022-10-16T07:24:16;98993.81;;;12.50;95.11
71573;BME280;59408;51.032;9.410;2022-10-16T07:26:45;99000.19;;;12.54;95.33
71573;BME280;59408;51.032;9.410;2022-10-16T07:29:14;98999.56;;;12.61;95.25
71573;BME280;59408;51.032;9.410;2022-10-16T07:31:42;99005.13;;;12.64;94.32
71573;BME280;59408;51.032;9.410;2022-10-16T07:34:09;99010.31;;;12.69;94.54
71573;BME280;59408;51.032;9.410;2022-10-16T07:36:36;99020.56;;;12.72;94.42
71573;BME280;59408;51.032;9.410;2022-10-16T07:39:03;99036.72;;;12.77;94.88
71573;BME280;59408;51.032;9.410;2022-10-16T07:41:29;99028.16;;;12.79;94.94
71573;BME280;59408;51.032;9.410;2022-10-16T07:43:58;99022.34;;;12.80;94.99
71573;BME280;59408;51.032;9.410;2022-10-16T07:46:25;99029.06;;;12.83;94.92
71573;BME280;59408;51.032;9.410;2022-10-16T07:48:52;99032.22;;;12.85;94.96
71573;BME280;59408;51.032;9.410;2022-10-16T07:51:20;99028.41;;;12.90;95.54
71573;BME280;59408;51.032;9.410;2022-10-16T07:53:48;99036.34;;;12.95;95.55
71573;BME280;59408;51.032;9.410;2022-10-16T07:56:16;99038.41;;;12.98;96.12
71573;BME280;59408;51.032;9.410;2022-10-16T07:58:43;99029.84;;;12.99;95.82
71573;BME280;59408;51.032;9.410;2022-10-16T08:01:13;99039.09;;;13.10;96.34
71573;BME280;59408;51.032;9.410;2022-10-16T08:03:41;99038.13;;;13.18;96.55
71573;BME280;59408;51.032;9.410;2022-10-16T08:06:08;99051.28;;;13.29;96.61
71573;BME280;59408;51.032;9.410;2022-10-16T08:08:34;99061.94;;;13.34;96.23
71573;BME280;59408;51.032;9.410;2022-10-16T08:11:01;99073.53;;;13.43;96.53
71573;BME280;59408;51.032;9.410;2022-10-16T08:13:28;99085.00;;;13.48;96.42
71573;BME280;59408;51.032;9.410;2022-10-16T08:15:54;99080.84;;;13.54;96.18
71573;BME280;59408;51.032;9.410;2022-10-16T08:18:22;99077.56;;;13.65;96.53
71573;BME280;59408;51.032;9.410;2022-10-16T08:20:55;99059.22;;;13.69;95.77
71573;BME280;59408;51.032;9.410;2022-10-16T08:23:22;99079.75;;;13.75;95.97
71573;BME280;59408;51.032;9.410;2022-10-16T08:25:48;99078.28;;;13.81;96.61
71573;BME280;59408;51.032;9.410;2022-10-16T08:28:15;99081.47;;;13.83;95.44
71573;BME280;59408;51.032;9.410;2022-10-16T08:30:41;99087.56;;;13.92;96.38
71573;BME280;59408;51.032;9.410;2022-10-16T08:33:08;99096.28;;;13.97;95.64
71573;BME280;59408;51.032;9.410;2022-10-16T08:35:36;99092.09;;;14.04;95.33
71573;BME280;59408;51.032;9.410;2022-10-16T08:38:03;99090.13;;;14.04;95.57
71573;BME280;59408;51.032;9.410;2022-10-16T08:40:31;99096.38;;;14.20;96.10
71573;BME280;59408;51.032;9.410;2022-10-16T08:43:17;99104.00;;;14.30;94.41
71573;BME280;59408;51.032;9.410;2022-10-16T08:46:05;99117.50;;;14.58;94.14
71573;BME280;59408;51.032;9.410;2022-10-16T08:48:42;99115.31;;;14.67;93.01
71573;BME280;59408;51.032;9.410;2022-10-16T08:51:16;99131.16;;;14.74;92.56
71573;BME280;59408;51.032;9.410;2022-10-16T08:53:49;99125.44;;;14.83;93.08
71573;BME280;59408;51.032;9.410;2022-10-16T08:56:18;99110.06;;;15.01;92.22
71573;BME280;59408;51.032;9.410;2022-10-16T08:58:45;99121.06;;;15.01;90.83
71573;BME280;59408;51.032;9.410;2022-10-16T09:01:19;99125.53;;;15.13;92.08
71573;BME280;59408;51.032;9.410;2022-10-16T09:07:02;99130.09;;;15.01;91.58
71573;BME280;59408;51.032;9.410;2022-10-16T09:09:50;99132.88;;;15.05;92.31
71573;BME280;59408;51.032;9.410;2022-10-16T09:12:24;99129.59;;;15.19;90.93
71573;BME280;59408;51.032;9.410;2022-10-16T09:15:01;99138.50;;;15.35;90.50
71573;BME280;59408;51.032;9.410;2022-10-16T09:17:36;99150.44;;;15.69;89.06
71573;BME280;59408;51.032;9.410;2022-10-16T09:20:16;99147.66;;;15.92;86.78
71573;BME280;59408;51.032;9.410;2022-10-16T09:22:46;99129.97;;;15.93;86.32
71573;BME280;59408;51.032;9.410;2022-10-16T09:25:14;99139.03;;;15.93;86.67
71573;BME280;59408;51.032;9.410;2022-10-16T09:27:42;99151.97;;;16.23;85.94
71573;BME280;59408;51.032;9.410;2022-10-16T09:30:13;99138.56;;;16.51;83.18
71573;BME280;59408;51.032;9.410;2022-10-16T09:32:40;99138.56;;;16.81;82.00
71573;BME280;59408;51.032;9.410;2022-10-16T09:35:11;99137.56;;;17.03;82.64
71573;BME280;59408;51.032;9.410;2022-10-16T09:37:40;99151.09;;;17.15;80.12
71573;BME280;59408;51.032;9.410;2022-10-16T09:40:23;99144.72;;;17.08;80.53
71573;BME280;59408;51.032;9.410;2022-10-16T09:42:54;99153.72;;;17.01;81.36
71573;BME280;59408;51.032;9.410;2022-10-16T09:45:23;99157.56;;;17.33;79.46
71573;BME280;59408;51.032;9.410;2022-10-16T09:47:50;99170.53;;;17.33;79.19
71573;BME280;59408;51.032;9.410;2022-10-16T09:50:25;99172.97;;;16.98;79.50
71573;BME280;59408;51.032;9.410;2022-10-16T09:53:03;99177.41;;;16.42;81.15
71573;BME280;59408;51.032;9.410;2022-10-16T09:55:31;99173.34;;;16.03;81.86
71573;BME280;59408;51.032;9.410;2022-10-16T09:57:58;99180.81;;;16.02;82.92
71573;BME280;59408;51.032;9.410;2022-10-16T10:00:24;99179.91;;;15.95;82.32
71573;BME280;59408;51.032;9.410;2022-10-16T10:02:52;99180.69;;;15.95;82.07
71573;BME280;59408;51.032;9.410;2022-10-16T10:05:22;99179.47;;;16.19;80.52
71573;BME280;59408;51.032;9.410;2022-10-16T10:07:55;99181.78;;;17.10;79.30
71573;BME280;59408;51.032;9.410;2022-10-16T10:10:24;99178.41;;;17.31;75.85
71573;BME280;59408;51.032;9.410;2022-10-16T10:12:52;99189.66;;;17.56;74.73
71573;BME280;59408;51.032;9.410;2022-10-16T10:15:19;99190.59;;;17.30;73.27
71573;BME280;59408;51.032;9.410;2022-10-16T10:17:47;99184.66;;;17.24;73.95
71573;BME280;59408;51.032;9.410;2022-10-16T10:20:27;99191.88;;;16.99;74.23
71573;BME280;59408;51.032;9.410;2022-10-16T10:22:54;99195.38;;;17.33;74.72
71573;BME280;59408;51.032;9.410;2022-10-16T10:25:46;99196.41;;;17.18;74.52
71573;BME280;59408;51.032;9.410;2022-10-16T10:28:36;99206.75;;;16.91;74.16
71573;BME280;59408;51.032;9.410;2022-10-16T10:31:09;99205.47;;;16.81;75.04
71573;BME280;59408;51.032;9.410;2022-10-16T10:33:45;99212.50;;;16.79;76.75
71573;BME280;59408;51.032;9.410;2022-10-16T10:36:27;99209.63;;;17.42;75.33
71573;BME280;59408;51.032;9.410;2022-10-16T10:38:58;99213.38;;;17.20;73.51
71573;BME280;59408;51.032;9.410;2022-10-16T10:41:51;99217.13;;;17.05;75.47
71573;BME280;59408;51.032;9.410;2022-10-16T10:47:20;99207.84;;;16.53;75.48
71573;BME280;59408;51.032;9.410;2022-10-16T10:49:58;99205.16;;;16.60;76.33
71573;BME280;59408;51.032;9.410;2022-10-16T10:52:47;99199.66;;;16.60;75.69
71573;BME280;59408;51.032;9.410;2022-10-16T10:55:23;99207.69;;;16.42;75.58
71573;BME280;59408;51.032;9.410;2022-10-16T10:58:06;99203.22;;;16.31;75.99
71573;BME280;59408;51.032;9.410;2022-10-16T11:00:48;99208.00;;;16.64;75.57
71573;BME280;59408;51.032;9.410;2022-10-16T11:03:31;99197.44;;;17.03;71.95
71573;BME280;59408;51.032;9.410;2022-10-16T11:06:06;99198.44;;;17.68;70.55
71573;BME280;59408;51.032;9.410;2022-10-16T11:08:36;99204.47;;;18.43;69.18
71573;BME280;59408;51.032;9.410;2022-10-16T11:11:08;99201.97;;;19.14;66.83
71573;BME280;59408;51.032;9.410;2022-10-16T11:13:40;99204.81;;;19.35;65.57
71573;BME280;59408;51.032;9.410;2022-10-16T11:16:16;99206.38;;;19.40;64.92
71573;BME280;59408;51.032;9.410;2022-10-16T11:18:51;99205.22;;;19.51;63.73
71573;BME280;59408;51.032;9.410;2022-10-16T11:21:20;99210.75;;;19.73;62.75
71573;BME280;59408;51.032;9.410;2022-10-16T11:23:58;99212.72;;;19.54;63.12
71573;BME280;59408;51.032;9.410;2022-10-16T11:26:30;99209.97;;;19.83;62.91
71573;BME280;59408;51.032;9.410;2022-10-16T11:29:01;99201.66;;;19.83;61.76
71573;BME280;59408;51.032;9.410;2022-10-16T11:31:36;99196.47;;;20.06;61.63
71573;BME280;59408;51.032;9.410;2022-10-16T11:34:09;99201.19;;;20.34;60.55
71573;BME280;59408;51.032;9.410;2022-10-16T11:36:40;99207.50;;;20.45;60.56
71573;BME280;59408;51.032;9.410;2022-10-16T11:39:24;99199.22;;;20.13;61.95
71573;BME280;59408;51.032;9.410;2022-10-16T11:41:54;99184.97;;;20.15;62.79
71573;BME280;59408;51.032;9.410;2022-10-16T11:44:36;99189.25;;;20.55;60.95
71573;BME280;59408;51.032;9.410;2022-10-16T11:47:15;99186.84;;;20.64;59.00
71573;BME280;59408;51.032;9.410;2022-10-16T11:50:17;99193.66;;;20.31;59.43
71573;BME280;59408;51.032;9.410;2022-10-16T11:52:51;99187.50;;;20.89;59.01
71573;BME280;59408;51.032;9.410;2022-10-16T11:55:22;99189.56;;;21.40;58.82
71573;BME280;59408;51.032;9.410;2022-10-16T11:57:51;99189.28;;;21.28;57.24
71573;BME280;59408;51.032;9.410;2022-10-16T12:00:22;99194.91;;;21.17;56.63
71573;BME280;59408;51.032;9.410;2022-10-16T12:02:58;99200.28;;;20.69;56.58
71573;BME280;59408;51.032;9.410;2022-10-16T12:05:33;99200.59;;;20.85;58.89
71573;BME280;59408;51.032;9.410;2022-10-16T12:08:07;99197.34;;;21.12;57.25
71573;BME280;59408;51.032;9.410;2022-10-16T12:10:35;99193.78;;;21.08;55.96
71573;BME280;59408;51.032;9.410;2022-10-16T12:13:03;99200.94;;;21.01;56.71
71573;BME280;59408;51.032;9.410;2022-10-16T12:15:31;99200.66;;;21.44;58.21
71573;BME280;59408;51.032;9.410;2022-10-16T12:18:23;99194.78;;;21.87;54.52
71573;BME280;59408;51.032;9.410;2022-10-16T12:20:55;99188.19;;;21.15;55.02
71573;BME280;59408;51.032;9.410;2022-10-16T12:23:22;99198.13;;;21.05;57.12
71573;BME280;59408;51.032;9.410;2022-10-16T12:25:54;99208.69;;;20.41;57.25
71573;BME280;59408;51.032;9.410;2022-10-16T12:28:22;99206.75;;;20.27;56.36
71573;BME280;59408;51.032;9.410;2022-10-16T12:30:53;99202.44;;;20.01;58.52
71573;BME280;59408;51.032;9.410;2022-10-16T12:33:24;99202.03;;;20.20;59.00
71573;BME280;59408;51.032;9.410;2022-10-16T12:35:51;99203.63;;;19.93;59.99
71573;BME280;59408;51.032;9.410;2022-10-16T12:38:21;99200.41;;;20.37;58.33
71573;BME280;59408;51.032;9.410;2022-10-16T12:40:56;99204.00;;;20.06;59.05
71573;BME280;59408;51.032;9.410;2022-10-16T12:43:36;99195.31;;;20.00;60.28
71573;BME280;59408;51.032;9.410;2022-10-16T12:46:18;99191.88;;;20.90;57.74
71573;BME280;59408;51.032;9.410;2022-10-16T12:48:47;99192.44;;;21.30;56.59
71573;BME280;59408;51.032;9.410;2022-10-16T12:51:35;99205.50;;;21.33;56.06
71573;BME280;59408;51.032;9.410;2022-10-16T12:54:03;99202.88;;;21.12;53.22
71573;BME280;59408;51.032;9.410;2022-10-16T12:56:41;99201.31;;;21.03;54.12
71573;BME280;59408;51.032;9.410;2022-10-16T12:59:21;99207.06;;;21.37;53.17
71573;BME280;59408;51.032;9.410;2022-10-16T13:02:05;99211.56;;;21.69;53.83
71573;BME280;59408;51.032;9.410;2022-10-16T13:04:46;99217.19;;;21.58;52.21
71573;BME280;59408;51.032;9.410;2022-10-16T13:07:25;99212.59;;;21.93;52.41
71573;BME280;59408;51.032;9.410;2022-10-16T13:10:05;99218.63;;;22.25;52.01
71573;BME280;59408;51.032;9.410;2022-10-16T13:12:50;99218.00;;;22.07;52.81
71573;BME280;59408;51.032;9.410;2022-10-16T13:15:46;99214.03;;;21.60;53.43
71573;BME280;59408;51.032;9.410;2022-10-16T13:18:21;99226.72;;;21.61;52.97